.
WxDataArchive / Data Records for 2009-06-17
2009-06-16 June 2009 2009-06-18

Data Records for Wednesday, 17 June 2009

Time	Temp	Chill	HIndex	Humid	Dewpt	 Wind 	HiWind	WindDir	Rain 	Barom 
-----	----	-----	------	-----	-----	------	------	-------	-----	----- 
00:00	64.3	64.3	64.3	82	58.7	2	6	90	0.00	29.879 
00:05	64.2	64.2	64.2	82	58.6	2	5	90	0.00	29.879 
00:10	64.2	64.2	64.2	82	58.6	1	4	90	0.00	29.879 
00:15	64.2	64.2	64.2	83	58.9	0	2	90	0.00	29.877 
00:20	64.2	64.2	64.2	83	58.9	1	3	90	0.00	29.877 
00:25	64.0	64.0	64.0	82	58.4	2	5	90	0.00	29.877 
00:30	64.2	64.2	64.2	82	58.6	1	4	90	0.00	29.871 
00:35	64.2	64.2	64.2	83	58.9	1	4	90	0.00	29.871 
00:40	64.0	64.0	64.0	83	58.7	1	5	112	0.00	29.871 
00:45	64.0	64.0	64.0	83	58.7	1	3	112	0.00	29.859 
00:50	64.0	64.0	64.0	82	58.4	1	3	112	0.00	29.859 
00:55	64.0	64.0	64.0	83	58.7	1	4	90	0.00	29.859 
01:00	64.0	64.0	64.0	83	58.7	1	4	90	0.00	29.846 
01:05	64.0	64.0	64.0	83	58.7	0	2	112	0.00	29.846 
01:10	64.0	64.0	64.0	83	58.7	0	2	112	0.00	29.846 
01:15	63.9	63.9	63.9	83	58.6	0	1	112	0.00	29.846 
01:20	63.9	63.9	63.9	83	58.6	0	1	112	0.00	29.846 
01:25	63.9	63.9	63.9	83	58.6	0	2	112	0.00	29.846 
01:30	63.9	63.9	63.9	82	58.3	0	3	112	0.00	29.844 
01:35	64.0	64.0	64.0	82	58.4	0	3	112	0.00	29.844 
01:40	64.0	64.0	64.0	82	58.4	0	0	---	0.00	29.844 
01:45	64.2	64.2	64.2	83	58.9	0	0	---	0.00	29.846 
01:50	64.0	64.0	64.0	83	58.7	0	0	---	0.00	29.846 
01:55	64.0	64.0	64.0	82	58.4	0	1	112	0.00	29.846 
02:00	64.2	64.2	64.2	83	58.9	0	0	---	0.00	29.846 
02:05	64.0	64.0	64.0	82	58.4	0	0	---	0.00	29.846 
02:10	64.2	64.2	64.2	83	58.9	0	0	---	0.00	29.846 
02:15	64.2	64.2	64.2	83	58.9	0	0	---	0.00	29.849 
02:20	64.3	64.3	64.3	83	59.0	0	0	---	0.00	29.849 
02:25	64.3	64.3	64.3	83	59.0	0	1	112	0.00	29.849 
02:30	64.3	64.3	64.3	83	59.0	0	1	112	0.00	29.841 
02:35	64.5	64.5	64.5	83	59.2	0	2	112	0.00	29.841 
02:40	64.5	64.5	64.5	83	59.2	0	1	112	0.00	29.841 
02:45	64.3	64.3	64.3	83	59.0	0	1	112	0.00	29.834 
02:50	64.3	64.3	64.3	83	59.0	0	0	---	0.00	29.834 
02:55	64.3	64.3	64.3	84	59.4	0	1	112	0.00	29.834 
03:00	64.2	64.2	64.2	84	59.3	0	1	112	0.00	29.828 
03:05	64.0	64.0	64.0	84	59.1	0	2	112	0.00	29.828 
03:10	64.0	64.0	64.0	84	59.1	0	1	112	0.00	29.828 
03:15	63.9	63.9	63.9	84	59.0	0	2	112	0.00	29.828 
03:20	63.9	63.9	63.9	85	59.3	0	1	112	0.00	29.828 
03:25	63.9	63.9	63.9	85	59.3	0	1	112	0.00	29.828 
03:30	63.9	63.9	63.9	85	59.3	0	1	112	0.00	29.827 
03:35	63.9	63.9	63.9	85	59.3	0	1	112	0.00	29.827 
03:40	63.9	63.9	63.9	85	59.3	0	0	---	0.00	29.827 
03:45	63.9	63.9	63.9	85	59.3	0	1	112	0.00	29.829 
03:50	63.9	63.9	63.9	85	59.3	0	0	---	0.00	29.829 
03:55	63.9	63.9	63.9	85	59.3	0	0	---	0.00	29.829 
04:00	64.0	64.0	64.0	85	59.4	0	1	112	0.00	29.829 
04:05	64.0	64.0	64.0	85	59.4	0	1	112	0.00	29.829 
04:10	64.0	64.0	64.0	84	59.1	0	1	112	0.00	29.829 
04:15	64.0	64.0	64.0	84	59.1	0	0	---	0.00	29.836 
04:20	64.0	64.0	64.0	85	59.4	0	0	---	0.00	29.836 
04:25	64.2	64.2	64.2	84	59.3	0	0	---	0.00	29.836 
04:30	64.2	64.2	64.2	84	59.3	0	0	---	0.00	29.835 
04:35	64.2	64.2	64.2	84	59.3	0	0	---	0.00	29.835 
04:40	64.2	64.2	64.2	84	59.3	0	0	---	0.00	29.835 
04:45	64.2	64.2	64.2	85	59.6	0	0	---	0.00	29.834 
04:50	64.2	64.2	64.2	85	59.6	0	0	---	0.00	29.834 
04:55	64.2	64.2	64.2	86	59.9	0	0	---	0.00	29.834 
05:00	64.2	64.2	64.2	86	59.9	0	0	---	0.00	29.833 
05:05	64.2	64.2	64.2	86	59.9	0	0	---	0.00	29.833 
05:10	64.0	64.0	64.0	86	59.7	0	0	---	0.00	29.833 
05:15	64.0	64.0	64.0	86	59.7	0	0	---	0.00	29.833 
05:20	63.9	63.9	63.9	86	59.6	0	0	---	0.00	29.833 
05:25	63.9	63.9	63.9	86	59.6	0	0	---	0.00	29.833 
05:30	63.9	63.9	63.9	87	59.9	0	0	---	0.00	29.832 
05:35	63.7	63.7	63.7	87	59.8	0	0	---	0.00	29.832 
05:40	63.7	63.7	63.7	87	59.8	0	0	---	0.00	29.832 
05:45	63.7	63.7	63.7	87	59.8	0	0	---	0.00	29.831 
05:50	63.5	63.5	63.5	88	59.9	0	0	---	0.00	29.831 
05:55	63.5	63.5	63.5	88	59.9	0	0	---	0.00	29.831 
06:00	63.4	63.4	63.4	88	59.8	0	0	---	0.00	29.833 
06:05	63.4	63.4	63.4	88	59.8	0	0	---	0.00	29.833 
06:10	63.2	63.2	63.2	88	59.6	0	0	---	0.00	29.833 
06:15	63.2	63.2	63.2	89	59.9	0	0	---	0.00	29.832 
06:20	63.2	63.2	63.2	89	59.9	0	0	---	0.00	29.832 
06:25	63.2	63.2	63.2	89	59.9	0	0	---	0.00	29.832 
06:30	63.2	63.2	63.2	89	59.9	0	0	---	0.00	29.834 
06:35	63.2	63.2	63.2	89	59.9	0	0	---	0.00	29.834 
06:40	63.2	63.2	63.2	90	60.2	0	0	---	0.00	29.834 
06:45	63.4	63.4	63.4	90	60.4	0	0	---	0.00	29.832 
06:50	63.4	63.4	63.4	90	60.4	0	0	---	0.00	29.832 
06:55	63.4	63.4	63.4	90	60.4	0	0	---	0.00	29.832 
07:00	63.4	63.4	63.4	90	60.4	0	0	---	0.00	29.829 
07:05	63.4	63.4	63.4	90	60.4	0	0	---	0.00	29.829 
07:10	63.4	63.4	63.4	90	60.4	0	0	---	0.00	29.829 
07:15	63.2	63.2	63.2	90	60.2	0	0	---	0.00	29.834 
07:20	63.2	63.2	63.2	90	60.2	0	0	---	0.00	29.834 
07:25	63.2	63.2	63.2	90	60.2	0	0	---	0.00	29.834 
07:30	63.2	63.2	63.2	90	60.2	0	0	---	0.00	29.834 
07:35	63.5	63.5	63.5	91	60.8	0	0	---	0.00	29.834 
07:40	64.2	64.2	64.2	90	61.2	0	1	112	0.00	29.834 
07:45	64.7	64.7	64.7	89	61.4	0	1	112	0.00	29.834 
07:50	65.3	65.3	65.3	89	62.0	0	1	112	0.00	29.834 
07:55	66.0	66.0	66.0	87	62.0	0	1	112	0.00	29.834 
08:00	66.6	66.6	66.6	86	62.3	0	3	248	0.00	29.829 
08:05	66.9	66.9	66.9	86	62.6	0	3	248	0.00	29.829 
08:10	67.3	67.3	67.3	85	62.6	0	2	248	0.00	29.829 
08:15	67.4	67.4	67.4	85	62.7	0	1	248	0.00	29.832 
08:20	67.4	67.4	67.4	84	62.4	0	1	248	0.00	29.832 
08:25	67.8	67.8	67.8	85	63.1	0	2	248	0.00	29.832 
08:30	68.3	68.3	68.3	84	63.3	0	2	248	0.00	29.834 
08:35	68.6	68.6	68.6	84	63.6	0	2	248	0.00	29.834 
08:40	69.1	69.1	69.1	84	64.1	0	2	248	0.00	29.834 
08:45	69.6	69.6	69.6	84	64.5	0	2	270	0.00	29.841 
08:50	69.9	69.9	69.9	83	64.5	1	2	270	0.00	29.841 
08:55	69.9	69.9	69.9	83	64.5	1	3	270	0.00	29.841 
09:00	69.8	69.8	69.8	83	64.4	1	3	270	0.00	29.839 
09:05	69.9	69.9	69.9	84	64.8	0	2	270	0.00	29.839 
09:10	69.8	69.8	69.8	84	64.7	1	3	270	0.00	29.839 
09:15	69.8	69.8	69.8	84	64.7	0	1	270	0.00	29.839 
09:20	69.6	69.6	69.6	85	64.9	0	1	270	0.00	29.839 
09:25	69.6	69.6	69.6	85	64.9	0	3	270	0.00	29.839 
09:30	69.6	69.6	69.6	85	64.9	0	2	270	0.00	29.839 
09:35	69.8	69.8	69.8	86	65.4	0	2	270	0.00	29.839 
09:40	69.9	69.9	69.9	85	65.2	0	2	248	0.00	29.839 
09:45	70.1	70.1	70.1	85	65.4	0	1	248	0.00	29.844 
09:50	70.4	70.4	70.4	85	65.7	0	2	248	0.00	29.844 
09:55	70.9	70.9	70.9	85	66.2	0	2	248	0.00	29.844 
10:00	71.3	71.3	71.3	84	66.2	1	3	248	0.00	29.838 
10:05	71.8	71.8	71.8	83	66.3	1	2	248	0.00	29.838 
10:10	72.1	72.1	72.1	83	66.6	1	3	248	0.00	29.838 
10:15	72.3	72.3	72.3	82	66.5	1	3	248	0.00	29.835 
10:20	72.3	72.3	72.3	82	66.5	0	3	248	0.00	29.835 
10:25	72.1	72.1	72.1	82	66.3	0	2	270	0.00	29.835 
10:30	72.1	72.1	72.1	83	66.6	0	1	270	0.00	29.835 
10:35	72.3	72.3	72.3	83	66.8	0	1	270	0.00	29.835 
10:40	72.5	72.5	72.5	83	67.0	1	2	270	0.00	29.835 
10:45	72.8	72.8	72.8	83	67.3	1	2	270	0.00	29.831 
10:50	73.0	73.0	73.0	82	67.2	1	3	248	0.00	29.831 
10:55	73.3	73.3	73.3	82	67.5	1	4	248	0.00	29.831 
11:00	73.7	73.7	73.7	81	67.5	1	3	270	0.00	29.828 
11:05	74.2	74.2	74.2	81	68.0	1	2	270	0.00	29.828 
11:10	74.2	74.2	74.2	80	67.6	1	3	270	0.00	29.828 
11:15	74.0	74.0	74.0	80	67.4	1	4	270	0.00	29.830 
11:20	73.9	73.9	73.9	80	67.3	1	4	270	0.00	29.830 
11:25	73.7	73.7	73.7	81	67.5	1	4	270	0.00	29.830 
11:30	73.9	73.9	73.9	81	67.7	1	3	270	0.00	29.830 
11:35	73.9	73.9	73.9	81	67.7	1	3	248	0.00	29.830 
11:40	74.0	74.0	74.0	81	67.8	1	3	248	0.00	29.830 
11:45	73.9	73.9	73.9	81	67.7	1	3	270	0.00	29.834 
11:50	73.9	73.9	73.9	81	67.7	1	4	270	0.00	29.834 
11:55	73.9	73.9	73.9	81	67.7	2	5	270	0.00	29.834 
12:00	73.9	73.9	73.9	81	67.7	1	4	270	0.00	29.832 
12:05	74.6	74.6	74.6	81	68.4	1	4	270	0.00	29.832 
12:10	75.4	75.4	76.0	81	69.1	2	4	270	0.00	29.832 
12:15	76.3	76.3	77.6	77	68.5	2	4	292	0.00	29.832 
12:20	76.7	76.7	78.2	76	68.5	3	5	270	0.00	29.832 
12:25	76.8	76.8	78.4	74	67.9	2	5	248	0.00	29.832 
12:30	76.7	76.7	78.3	74	67.8	2	4	292	0.00	29.836 
12:35	77.0	77.0	78.7	74	68.1	2	4	270	0.00	29.836 
12:40	77.0	77.0	78.7	73	67.7	2	5	292	0.00	29.836 
12:45	77.2	77.2	79.0	72	67.5	2	5	270	0.00	29.833 
12:50	77.6	77.6	79.6	74	68.6	2	4	292	0.00	29.833 
12:55	78.1	78.1	80.2	72	68.3	2	4	292	0.00	29.833 
13:00	78.3	78.3	80.6	73	68.9	2	4	270	0.00	29.828 
13:05	78.1	78.1	80.2	71	67.9	2	4	270	0.00	29.828 
13:10	78.6	78.6	80.8	70	68.0	2	5	292	0.00	29.828 
13:15	78.8	78.8	80.9	67	66.9	2	6	270	0.00	29.828 
13:20	79.0	79.0	81.3	69	67.9	1	4	292	0.00	29.828 
13:25	78.6	78.6	80.7	67	66.7	2	5	270	0.00	29.828 
13:30	78.1	78.1	80.1	68	66.7	2	5	270	0.00	29.825 
13:35	78.1	78.1	80.1	69	67.1	2	3	292	0.00	29.825 
13:40	79.0	79.0	81.6	73	69.6	1	3	292	0.00	29.825 
13:45	79.6	79.6	82.0	67	67.7	2	3	248	0.00	29.819 
13:50	79.6	79.6	81.8	65	66.8	2	4	248	0.00	29.819 
13:55	79.4	79.4	81.6	65	66.6	2	4	270	0.00	29.819 
14:00	78.8	78.8	80.9	67	66.9	2	4	270	0.00	29.821 
14:05	78.6	78.6	80.7	68	67.1	1	2	292	0.00	29.821 
14:10	78.6	78.6	80.7	68	67.1	2	3	292	0.00	29.821 
14:15	78.5	78.5	80.7	69	67.5	2	4	292	0.00	29.818 
14:20	79.4	79.4	81.7	67	67.5	3	5	270	0.00	29.818 
14:25	80.3	80.3	82.9	66	67.9	2	4	270	0.00	29.818 
14:30	80.5	80.5	83.1	65	67.6	3	6	292	0.00	29.812 
14:35	81.1	81.1	83.6	63	67.3	2	6	248	0.00	29.812 
14:40	80.7	80.7	83.1	63	66.9	2	4	248	0.00	29.812 
14:45	80.1	80.1	82.5	65	67.2	2	5	270	0.00	29.810 
14:50	79.9	79.9	82.1	64	66.6	2	4	270	0.00	29.810 
14:55	79.9	79.9	82.0	63	66.2	2	5	270	0.00	29.810 
15:00	79.9	79.9	81.9	62	65.7	2	5	270	0.00	29.806 
15:05	80.5	80.5	82.8	63	66.7	3	7	270	0.00	29.806 
15:10	80.9	80.9	83.2	62	66.6	3	7	270	0.00	29.806 
15:15	81.4	81.4	84.1	63	67.6	2	5	248	0.00	29.802 
15:20	81.2	81.2	83.0	58	65.0	3	6	292	0.00	29.802 
15:25	81.2	81.2	83.2	59	65.5	2	4	270	0.00	29.802 
15:30	81.4	81.4	83.6	60	66.2	2	7	292	0.00	29.799 
15:35	81.4	81.4	83.3	58	65.2	4	7	270	0.00	29.799 
15:40	80.9	80.9	82.7	58	64.7	4	7	270	0.00	29.799 
15:45	80.7	80.7	82.5	59	65.0	3	5	270	0.00	29.801 
15:50	79.9	79.9	81.8	61	65.2	3	6	292	0.00	29.801 
15:55	80.5	80.5	82.5	61	65.8	3	5	315	0.00	29.801 
16:00	80.7	80.7	82.8	61	66.0	3	9	315	0.00	29.807 
16:05	80.7	80.7	82.5	59	65.0	3	8	270	0.00	29.807 
16:10	79.9	79.9	81.6	59	64.3	2	6	338	0.00	29.807 
16:15	79.9	79.9	81.5	58	63.8	3	7	270	0.00	29.809 
16:20	79.6	79.6	81.3	60	64.5	3	9	270	0.00	29.809 
16:25	79.2	79.2	81.1	62	65.0	3	6	270	0.00	29.809 
16:30	78.6	78.6	80.4	63	64.9	2	5	292	0.00	29.818 
16:35	78.3	78.3	80.1	63	64.6	3	6	270	0.00	29.818 
16:40	78.1	78.1	80.0	65	65.4	2	5	315	0.00	29.818 
16:45	78.3	78.3	80.2	65	65.5	2	6	292	0.00	29.824 
16:50	78.1	78.1	79.9	64	64.9	2	6	292	0.00	29.824 
16:55	77.6	77.6	79.4	65	64.9	2	7	315	0.00	29.824 
17:00	77.0	77.0	78.8	65	64.3	2	5	315	0.00	29.833 
17:05	76.7	76.7	78.5	66	64.5	2	5	270	0.00	29.833 
17:10	76.3	76.3	78.1	66	64.1	2	7	338	0.00	29.833 
17:15	76.0	76.0	77.8	66	63.8	2	5	292	0.00	29.845 
17:20	75.8	75.8	77.7	66	63.6	3	5	315	0.00	29.845 
17:25	75.4	75.4	77.4	65	62.8	3	7	315	0.00	29.845 
17:30	74.9	74.9	74.9	65	62.3	3	5	315	0.00	29.846 
17:35	74.2	74.2	74.2	67	62.5	3	7	315	0.00	29.846 
17:40	74.0	74.0	74.0	67	62.3	3	7	315	0.00	29.846 
17:45	73.5	73.5	73.5	67	61.9	3	6	315	0.00	29.856 
17:50	73.2	73.2	73.2	67	61.6	2	7	315	0.00	29.856 
17:55	73.2	73.2	73.2	67	61.6	2	7	292	0.00	29.856 
18:00	72.8	72.8	72.8	68	61.6	2	6	292	0.00	29.861 
18:05	72.5	72.5	72.5	69	61.7	2	4	270	0.00	29.861 
18:10	72.0	72.0	72.0	69	61.3	2	6	315	0.00	29.861 
18:15	71.6	71.6	71.6	69	60.9	2	6	315	0.00	29.862 
18:20	71.3	71.3	71.3	69	60.6	3	6	292	0.00	29.862 
18:25	70.8	70.8	70.8	70	60.5	2	9	292	0.00	29.862 
18:30	70.3	70.3	70.3	71	60.4	2	5	338	0.00	29.865 
18:35	69.9	69.9	69.9	70	59.7	3	6	315	0.00	29.865 
18:40	70.1	70.1	70.1	70	59.8	3	7	315	0.00	29.865 
18:45	70.3	70.3	70.3	69	59.6	2	5	270	0.00	29.861 
18:50	70.3	70.3	70.3	69	59.6	3	7	270	0.00	29.861 
18:55	70.4	70.4	70.4	69	59.7	2	6	292	0.00	29.861 
19:00	70.3	70.3	70.3	69	59.6	3	9	315	0.00	29.864 
19:05	70.1	70.1	70.1	69	59.4	2	9	315	0.00	29.864 
19:10	70.1	70.1	70.1	69	59.4	2	9	315	0.00	29.864 
19:15	70.1	70.1	70.1	69	59.4	2	6	292	0.00	29.862 
19:20	69.9	69.9	69.9	69	59.3	2	6	292	0.00	29.862 
19:25	69.8	69.8	69.8	69	59.2	3	6	292	0.00	29.862 
19:30	69.8	69.8	69.8	70	59.6	1	4	315	0.00	29.861 
19:35	69.8	69.8	69.8	69	59.2	1	3	315	0.00	29.861 
19:40	69.9	69.9	69.9	69	59.3	1	3	315	0.00	29.861 
19:45	69.6	69.6	69.6	70	59.4	2	5	315	0.00	29.865 
19:50	69.3	69.3	69.3	71	59.5	1	6	292	0.00	29.865 
19:55	68.9	68.9	68.9	71	59.1	2	6	292	0.00	29.865 
20:00	68.8	68.8	68.8	72	59.4	1	4	315	0.00	29.874 
20:05	68.6	68.6	68.6	72	59.2	2	6	315	0.00	29.874 
20:10	68.4	68.4	68.4	73	59.4	1	3	315	0.00	29.874 
20:15	68.4	68.4	68.4	73	59.4	1	4	315	0.00	29.877 
20:20	68.1	68.1	68.1	73	59.1	1	2	315	0.00	29.877 
20:25	67.9	67.9	67.9	74	59.3	1	3	270	0.00	29.877 
20:30	67.6	67.6	67.6	75	59.4	1	2	270	0.00	29.876 
20:35	67.4	67.4	67.4	75	59.2	1	3	315	0.00	29.876 
20:40	67.1	67.1	67.1	76	59.3	1	3	315	0.00	29.876 
20:45	66.9	66.9	66.9	77	59.4	1	2	315	0.00	29.879 
20:50	66.8	66.8	66.8	77	59.3	0	3	292	0.00	29.879 
20:55	66.6	66.6	66.6	78	59.5	0	1	292	0.00	29.879 
21:00	66.4	66.4	66.4	79	59.7	0	3	292	0.00	29.880 
21:05	66.1	66.1	66.1	79	59.4	0	2	315	0.00	29.880 
21:10	66.0	66.0	66.0	80	59.6	0	1	315	0.00	29.880 
21:15	65.6	65.6	65.6	80	59.3	0	1	315	0.00	29.870 
21:20	65.5	65.5	65.5	81	59.5	0	1	315	0.00	29.870 
21:25	65.3	65.3	65.3	81	59.3	0	1	315	0.00	29.870 
21:30	65.2	65.2	65.2	81	59.2	1	3	315	0.00	29.879 
21:35	65.0	65.0	65.0	82	59.4	0	2	315	0.00	29.879 
21:40	64.8	64.8	64.8	82	59.2	0	1	315	0.00	29.879 
21:45	64.7	64.7	64.7	82	59.1	0	1	315	0.00	29.875 
21:50	64.7	64.7	64.7	83	59.4	0	1	315	0.00	29.875 
21:55	64.5	64.5	64.5	84	59.6	0	1	315	0.00	29.875 
22:00	64.5	64.5	64.5	84	59.6	0	3	315	0.00	29.879 
22:05	64.7	64.7	64.7	83	59.4	1	3	292	0.00	29.879 
22:10	64.7	64.7	64.7	83	59.4	0	2	315	0.00	29.879 
22:15	64.7	64.7	64.7	84	59.7	0	2	315	0.00	29.887 
22:20	64.7	64.7	64.7	84	59.7	1	2	315	0.00	29.887 
22:25	64.7	64.7	64.7	84	59.7	1	2	315	0.00	29.887 
22:30	64.7	64.7	64.7	84	59.7	0	3	315	0.00	29.882 
22:35	64.7	64.7	64.7	84	59.7	0	1	315	0.00	29.882 
22:40	64.7	64.7	64.7	84	59.7	0	1	315	0.00	29.882 
22:45	64.7	64.7	64.7	84	59.7	0	1	315	0.00	29.888 
22:50	64.7	64.7	64.7	84	59.7	0	2	315	0.00	29.888 
22:55	64.7	64.7	64.7	84	59.7	0	2	315	0.00	29.888 
23:00	64.7	64.7	64.7	83	59.4	0	1	315	0.00	29.890 
23:05	64.7	64.7	64.7	83	59.4	0	1	315	0.00	29.890 
23:10	64.7	64.7	64.7	83	59.4	0	1	315	0.00	29.890 
23:15	64.7	64.7	64.7	83	59.4	0	1	315	0.00	29.892 
23:20	64.7	64.7	64.7	83	59.4	0	1	315	0.00	29.892 
23:25	64.7	64.7	64.7	83	59.4	0	1	315	0.00	29.892 
23:30	64.5	64.5	64.5	83	59.2	0	1	315	0.00	29.886 
23:35	64.5	64.5	64.5	83	59.2	0	0	---	0.00	29.886 
23:40	64.3	64.3	64.3	84	59.4	0	0	---	0.00	29.886 
23:45	64.0	64.0	64.0	84	59.1	0	0	---	0.00	29.890 
23:50	63.9	63.9	63.9	84	59.0	0	0	---	0.00	29.890 
23:55	63.7	63.7	63.7	85	59.1	0	0	---	0.00	29.890 

CoCoRaHS
IN-AL-39
A2 Web Hosting
Creative Commons License
GoDaddy
search engine by freefind advanced

loaded 2018-11-17 15:17:25 • last modified 2010-11-18 10:43:29
Privacy PolicyDisclaimer
• wx.awcolley.com is powered by PmWiki v.2002016 •
• all content (unless otherwise noted) © 2018 A W Colley